This is the latest recevied weather packets stored in our database for station/object VE7THZ. If no packets are shown the sender has not sent any weather packets the latest 10 day(s).
| Time | Temp. | Humidity | Pressure | Rain* | Wind** | Luminosity | Snow |
|---|---|---|---|---|---|---|---|
| 1777655678 | 15.56° C | 41% | 1016.3 hPa | 0 mm | - | - | - |
| 1777655066 | 15.56° C | 39% | 1016.3 hPa | 0 mm | - | - | - |
| 1777654483 | 15.56° C | 44% | 1016.5 hPa | 0 mm | - | - | - |
| 1777653857 | 14.44° C | 42% | 1016.5 hPa | 0 mm | - | - | - |
| 1777653248 | 13.89° C | 44% | 1016.6 hPa | 0 mm | - | - | - |
| 1777652641 | 13.89° C | 44% | 1016.6 hPa | 0 mm | - | - | - |
| 1777652066 | 13.89° C | 45% | 1016.7 hPa | 0 mm | - | - | - |
| 1777651457 | 13.89° C | 49% | 1016.7 hPa | 0 mm | - | - | - |
| 1777650856 | 13.33° C | 51% | 1016.7 hPa | 0 mm | - | - | - |
| 1777650259 | 12.22° C | 53% | 1016.8 hPa | 0 mm | - | - | - |
| 1777649675 | 11.67° C | 57% | 1016.9 hPa | 0 mm | - | - | - |
| 1777649092 | 11.67° C | 59% | 1016.9 hPa | 0 mm | - | - | - |
| 1777648485 | 11.67° C | 58% | 1017 hPa | 0 mm | - | - | - |
| 1777647866 | 11.67° C | 59% | 1017.1 hPa | 0 mm | - | - | - |
| 1777647284 | 11.11° C | 60% | 1017 hPa | 0 mm | - | - | - |
| 1777646672 | 11.11° C | 57% | 1016.9 hPa | 0 mm | - | - | - |
| 1777646071 | 10.56° C | 60% | 1016.8 hPa | 0 mm | - | - | - |
| 1777645457 | 9.44° C | 68% | 1016.8 hPa | 0 mm | - | - | - |
| 1777644876 | 8.33° C | 69% | 1016.6 hPa | 0 mm | - | - | - |
| 1777604888 | 17.78° C | 31% | 1014 hPa | 0 mm | - | - | - |
| 1777604264 | 17.78° C | 31% | 1014.1 hPa | 0 mm | - | - | - |
| 1777603647 | 17.78° C | 32% | 1014.1 hPa | 0 mm | - | - | - |
| 1777603026 | 18.33° C | 34% | 1014.1 hPa | 0 mm | - | - | - |
| 1777602436 | 18.33° C | 33% | 1014.1 hPa | 0 mm | - | - | - |
| 1777601832 | 18.89° C | 32% | 1014.1 hPa | 0 mm | - | - | - |
* Rain latest hour (hover to see other rain measurements)
** Current wind speed in m/s (hover to see current wind gust speed)